Time;durP1;ratioP1;P1;durP2;ratioP2;P2;SDS_P1;SDS_P2;PMS_P1;PMS_P2;Temp;Humidity;BMP_temperature;BMP_pressure;BME280_temperature;BME280_humidity;BME280_pressure;Samples;Min_cycle;Max_cycle;Signal;HPM_P1;HPM_P2
2022/03/25 00:00:10;;;;;;;10.95;2.97;;;6.60;99.90;;;5.91;82.40;100663.72;4911313;29;20211;-77
2022/03/25 00:02:42;;;;;;;8.98;2.42;;;6.50;99.90;;;6.05;82.07;100683.41;4907770;29;20226;-76
2022/03/25 00:05:11;;;;;;;8.13;2.25;;;6.40;99.90;;;6.02;82.74;100690.28;4895257;29;20234;-77
2022/03/25 00:07:39;;;;;;;11.93;3.05;;;6.40;99.90;;;6.05;81.97;100695.63;4911272;29;20216;-77
2022/03/25 00:10:08;;;;;;;6.60;1.88;;;6.40;99.90;;;6.00;82.53;100699.84;4910740;29;20226;-79
2022/03/25 00:12:37;;;;;;;11.75;3.58;;;6.40;99.90;;;5.88;85.31;100713.44;4894064;29;20231;-77
2022/03/25 00:15:06;;;;;;;7.20;2.10;;;6.30;99.90;;;6.04;83.72;100738.50;4909551;29;20231;-77
2022/03/25 00:17:34;;;;;;;10.18;2.75;;;6.30;99.90;;;5.92;84.11;100738.97;4910911;29;20207;-81
2022/03/25 00:20:04;;;;;;;10.73;2.90;;;6.30;99.90;;;6.01;84.14;100752.41;4910593;29;20214;-82
2022/03/25 00:22:33;;;;;;;11.48;3.00;;;6.30;99.90;;;5.85;85.45;100747.47;4902936;29;20215;-80
2022/03/25 00:25:05;;;;;;;8.02;2.22;;;6.20;99.90;;;5.57;86.15;100745.66;4893659;29;20577;-76
2022/03/25 00:27:33;;;;;;;11.20;3.05;;;6.10;99.90;;;5.65;86.17;100754.69;4908478;29;20215;-78
2022/03/25 00:30:04;;;;;;;7.75;2.17;;;6.10;99.90;;;5.73;87.92;100782.06;4911478;29;20218;-76
2022/03/25 00:32:32;;;;;;;7.22;2.03;;;6.00;99.90;;;5.59;85.37;100762.34;4909394;29;20223;-82
2022/03/25 00:35:02;;;;;;;11.00;2.90;;;6.00;99.90;;;5.39;86.42;100751.16;4907450;29;20231;-80
2022/03/25 00:37:30;;;;;;;8.38;2.30;;;5.90;99.90;;;5.54;85.68;100763.91;4893309;29;20219;-78
2022/03/25 00:39:59;;;;;;;13.88;3.22;;;5.90;99.90;;;5.38;87.03;100769.47;4857509;29;20700;-77
2022/03/25 00:42:27;;;;;;;15.32;3.65;;;5.90;99.90;;;5.29;87.11;100762.16;4905487;29;20211;-78
2022/03/25 00:44:56;;;;;;;15.02;3.50;;;5.80;99.90;;;5.30;87.44;100777.06;4904719;29;20239;-79
2022/03/25 00:47:24;;;;;;;14.60;3.42;;;5.70;99.90;;;5.43;88.43;100817.72;4907302;29;20222;-79
2022/03/25 00:49:52;;;;;;;13.68;3.15;;;5.70;99.90;;;5.61;87.15;100822.75;4909300;29;20230;-77
2022/03/25 00:52:22;;;;;;;12.95;3.60;;;5.70;99.90;;;5.37;85.91;100804.41;4909454;29;20235;-76
2022/03/25 00:54:50;;;;;;;12.05;2.83;;;5.80;99.90;;;5.52;85.38;100804.06;4893438;29;20734;-77
2022/03/25 00:57:20;;;;;;;16.63;4.03;;;5.80;99.90;;;5.49;85.43;100799.59;4910179;29;20215;-83
2022/03/25 00:59:51;;;;;;;9.90;2.40;;;5.80;99.90;;;5.47;85.08;100799.53;4907122;29;20211;-78
2022/03/25 01:02:19;;;;;;;13.85;3.22;;;5.70;99.90;;;5.29;86.38;100791.03;4908860;29;20222;-76
2022/03/25 01:04:50;;;;;;;14.98;3.38;;;5.70;99.90;;;5.25;86.05;100786.50;4907762;29;20247;-78
2022/03/25 01:07:20;;;;;;;16.23;3.67;;;5.60;99.90;;;5.37;86.88;100825.38;4911045;29;20214;-77
2022/03/25 01:09:48;;;;;;;14.02;3.35;;;5.60;99.90;;;5.20;86.75;100814.28;4876369;29;20696;-79
2022/03/25 01:12:17;;;;;;;14.93;3.47;;;5.50;99.90;;;5.04;87.29;100798.78;4909619;29;20254;-76
2022/03/25 01:14:47;;;;;;;16.17;3.88;;;5.50;99.90;;;5.06;87.79;100800.63;4906727;29;20250;-81
2022/03/25 01:17:19;;;;;;;22.58;5.10;;;5.40;99.90;;;5.32;86.79;100843.56;4905641;29;20224;-79
2022/03/25 01:19:47;;;;;;;19.35;4.35;;;5.40;99.90;;;5.41;86.76;100843.91;4902607;29;20211;-74
2022/03/25 01:22:15;;;;;;;19.33;4.38;;;5.50;99.90;;;5.32;86.19;100840.94;4905682;29;20230;-73
2022/03/25 01:24:43;;;;;;;11.40;2.80;;;5.50;99.90;;;4.96;88.77;100824.72;4907864;29;20239;-73
2022/03/25 01:27:11;;;;;;;16.50;3.85;;;5.40;99.90;;;5.16;87.52;100830.72;4907274;29;20218;-73
2022/03/25 01:29:39;;;;;;;8.70;2.17;;;5.40;99.90;;;5.13;88.36;100846.31;4891238;29;20206;-74
2022/03/25 01:32:10;;;;;;;14.23;3.58;;;5.30;99.90;;;5.07;86.72;100831.25;4875380;29;20235;-73
2022/03/25 01:34:38;;;;;;;15.45;3.72;;;5.30;99.90;;;4.87;87.97;100819.13;4887934;29;20820;-73
2022/03/25 01:37:07;;;;;;;14.32;3.42;;;5.30;99.90;;;4.89;88.70;100834.91;4903807;29;20211;-73
2022/03/25 01:39:35;;;;;;;14.80;3.70;;;5.20;99.90;;;4.85;88.45;100828.66;4905484;29;20219;-73
2022/03/25 01:42:03;;;;;;;14.13;3.50;;;5.20;99.90;;;4.81;90.19;100852.97;4911421;29;20698;-73
2022/03/25 01:44:31;;;;;;;8.50;2.42;;;5.10;99.90;;;4.59;91.80;100847.72;4890659;29;20245;-73
2022/03/25 01:47:00;;;;;;;15.88;3.85;;;5.10;99.90;;;4.69;90.72;100861.25;4908648;29;20215;-73
2022/03/25 01:49:28;;;;;;;14.70;3.47;;;5.00;99.90;;;4.66;92.09;100876.84;4905977;29;20207;-74
2022/03/25 01:52:00;;;;;;;16.10;3.72;;;5.00;99.90;;;4.32;92.98;100863.22;4906562;29;20218;-73
2022/03/25 01:54:31;;;;;;;16.10;3.75;;;4.90;99.90;;;4.50;91.89;100877.94;4889914;29;20249;-73
2022/03/25 01:57:06;;;;;;;13.55;3.28;;;4.90;99.90;;;4.72;90.61;100915.50;4907251;29;20211;-74
2022/03/25 01:59:35;;;;;;;14.43;3.35;;;4.90;99.90;;;4.53;92.97;100903.38;4905393;29;20224;-74
2022/03/25 02:02:05;;;;;;;15.77;3.78;;;4.90;99.90;;;4.40;92.93;100901.97;4905039;29;20230;-73
2022/03/25 02:04:34;;;;;;;12.98;3.20;;;4.80;99.90;;;4.29;93.63;100900.66;4907703;29;20235;-73
2022/03/25 02:07:02;;;;;;;12.43;3.15;;;4.70;99.90;;;4.23;93.52;100891.63;4907399;29;20226;-73
2022/03/25 02:09:31;;;;;;;7.30;1.90;;;4.70;99.90;;;4.27;93.64;100907.53;4906788;29;20207;-73
2022/03/25 02:12:01;;;;;;;15.77;3.83;;;4.60;99.90;;;4.50;92.40;100946.06;4907010;29;20249;-73
2022/03/25 02:14:30;;;;;;;16.98;4.05;;;4.60;99.90;;;4.20;95.13;100936.00;4895540;29;20250;-73
2022/03/25 02:16:58;;;;;;;15.57;4.15;;;4.60;99.90;;;4.10;95.66;100930.38;4905858;29;20591;-73
2022/03/25 02:19:29;;;;;;;14.93;4.70;;;4.50;99.90;;;4.05;96.75;100936.25;4903754;29;20238;-74
2022/03/25 02:21:57;;;;;;;10.85;2.70;;;4.40;99.90;;;3.84;98.04;100934.47;4911236;29;20587;-73
2022/03/25 02:24:29;;;;;;;11.77;3.05;;;;;;;3.98;96.81;100956.03;4901629;29;20238;-73
2022/03/25 02:26:59;;;;;;;12.40;3.20;;;4.30;99.90;;;4.03;96.64;100964.09;4907427;29;20218;-73
2022/03/25 02:29:27;;;;;;;12.30;3.22;;;4.30;99.90;;;4.13;95.88;100982.88;4890006;29;20207;-74
2022/03/25 02:31:54;;;;;;;11.20;3.25;;;4.30;99.90;;;3.97;97.76;100982.13;4887147;29;20204;-73
2022/03/25 02:34:24;;;;;;;13.05;3.50;;;4.30;99.90;;;3.75;98.20;100968.06;4891614;29;20242;-74
2022/03/25 02:36:52;;;;;;;8.93;2.50;;;4.20;99.90;;;4.36;96.51;101051.94;4895839;29;20207;-74
2022/03/25 02:39:20;;;;;;;9.80;2.92;;;4.20;99.90;;;4.81;94.17;101073.06;4886800;29;20215;-73
2022/03/25 02:41:49;;;;;;;12.35;3.15;;;5.20;99.90;;;4.98;92.63;101055.44;4901909;29;20207;-73
2022/03/25 02:44:18;;;;;;;12.52;3.53;;;4.60;99.90;;;4.80;91.13;101006.66;4889716;29;20243;-74
2022/03/25 02:46:46;;;;;;;14.15;3.83;;;4.60;99.90;;;4.85;90.89;100990.25;4887962;29;20215;-73
2022/03/25 02:49:15;;;;;;;12.70;3.33;;;4.60;99.90;;;5.05;89.90;101008.56;4887395;29;20234;-73
2022/03/25 02:51:43;;;;;;;13.57;3.50;;;4.70;99.90;;;5.34;87.45;101020.25;4906539;29;20640;-73
2022/03/25 02:54:11;;;;;;;14.05;3.67;;;4.80;99.90;;;5.27;86.42;100985.84;4907055;29;20254;-74
2022/03/25 02:56:39;;;;;;;8.05;2.22;;;4.90;99.90;;;5.63;83.51;100989.88;4906820;29;20208;-74
2022/03/25 02:59:07;;;;;;;12.82;3.58;;;5.10;99.90;;;6.06;81.48;101007.25;4905207;29;20211;-74
2022/03/25 03:01:36;;;;;;;12.20;3.30;;;5.30;99.90;;;5.93;80.95;100949.88;4906579;29;20211;-73
2022/03/25 03:04:04;;;;;;;12.95;3.47;;;5.40;99.90;;;6.10;80.44;100960.13;4908667;29;20234;-73
2022/03/25 03:06:32;;;;;;;10.25;2.83;;;5.50;99.90;;;6.03;79.67;100936.25;4911579;29;20215;-74
2022/03/25 03:09:00;;;;;;;15.52;4.63;;;5.60;99.90;;;5.77;80.22;100906.41;4910946;29;20215;-75
2022/03/25 03:11:28;;;;;;;9.02;2.65;;;5.70;99.90;;;5.55;81.12;100894.25;4911007;29;20211;-76
2022/03/25 03:13:56;;;;;;;10.93;2.97;;;5.60;99.90;;;5.10;84.72;100873.31;4912102;29;20249;-77
2022/03/25 03:16:24;;;;;;;13.35;3.85;;;5.50;99.90;;;4.76;87.94;100886.84;4904610;29;20203;-80
2022/03/25 03:18:52;;;;;;;19.13;5.00;;;5.20;99.90;;;4.61;89.45;100907.19;4887840;29;20211;-78
2022/03/25 03:21:24;;;;;;;10.20;2.90;;;5.00;99.90;;;4.39;91.98;100915.00;4906733;29;20227;-80
2022/03/25 03:23:52;;;;;;;16.25;4.35;;;4.90;99.90;;;4.28;92.71;100942.47;4906207;29;20239;-78
2022/03/25 03:26:21;;;;;;;12.43;3.35;;;4.70;99.90;;;4.34;94.77;100972.44;4910581;29;20211;-80
2022/03/25 03:28:49;;;;;;;14.77;5.40;;;4.60;99.90;;;4.19;95.17;100956.06;4907322;29;20214;-76
2022/03/25 03:31:17;;;;;;;13.05;3.58;;;4.50;99.90;;;4.27;95.64;100978.22;4907939;29;20230;-77
2022/03/25 03:33:45;;;;;;;11.35;3.15;;;4.50;99.90;;;4.05;96.29;100967.66;4911474;29;20250;-80
2022/03/25 03:36:12;;;;;;;7.45;2.30;;;4.40;99.90;;;3.93;96.88;100974.97;4909567;29;20211;-76
2022/03/25 03:38:40;;;;;;;9.45;2.88;;;4.30;99.90;;;3.77;99.02;100983.84;4910652;29;20207;-77
2022/03/25 03:41:08;;;;;;;13.55;3.80;;;4.30;99.90;;;3.79;98.97;100985.69;4909520;29;20207;-76
2022/03/25 03:43:36;;;;;;;7.47;2.28;;;4.10;99.90;;;3.56;100.00;100980.25;4909751;29;20243;-78
2022/03/25 03:46:04;;;;;;;8.40;2.47;;;4.10;99.90;;;3.52;100.00;100992.28;4910636;29;20215;-78
2022/03/25 03:48:32;;;;;;;11.57;3.30;;;4.00;99.90;;;3.53;100.00;101010.66;4910779;29;20215;-81
2022/03/25 03:51:00;;;;;;;10.07;2.78;;;4.00;99.90;;;3.36;100.00;101014.22;4894367;29;20218;-76
2022/03/25 03:53:28;;;;;;;10.48;2.78;;;3.90;99.90;;;3.41;100.00;101022.28;4910465;29;20231;-79
2022/03/25 03:55:56;;;;;;;11.70;3.17;;;3.80;99.90;;;3.57;100.00;101055.25;4909547;29;20211;-79
2022/03/25 03:58:42;;;;;;;9.68;2.60;;;3.80;99.90;;;3.60;100.00;101058.03;4908973;29;20211;-82
2022/03/25 04:01:10;;;;;;;11.98;3.22;;;4.00;99.90;;;3.48;100.00;101050.50;4909952;29;20586;-73
2022/03/25 04:03:38;;;;;;;7.82;2.22;;;3.70;99.90;;;3.45;100.00;101051.25;4908841;29;20243;-74
2022/03/25 04:06:06;;;;;;;7.65;2.20;;;3.80;99.90;;;3.47;100.00;101064.41;4911132;29;20230;-74
2022/03/25 04:08:35;;;;;;;12.07;3.20;;;3.80;99.90;;;3.58;100.00;101083.22;4910774;29;20223;-74
2022/03/25 04:11:03;;;;;;;8.13;2.28;;;3.80;99.90;;;3.66;99.27;101085.34;4909644;29;20223;-74
2022/03/25 04:13:31;;;;;;;11.50;3.10;;;3.10;99.90;;;3.62;100.00;101088.66;4908191;29;20227;-74
2022/03/25 04:15:59;;;;;;;4.05;1.38;;;3.80;99.90;;;3.59;99.64;101085.88;4909543;29;20226;-74
2022/03/25 04:18:27;;;;;;;10.30;2.78;;;3.70;99.90;;;3.57;99.53;101086.66;4908474;29;20215;-73
2022/03/25 04:20:55;;;;;;;14.65;3.55;;;3.80;99.90;;;3.59;99.74;101092.84;4907858;29;20211;-73
2022/03/25 04:23:23;;;;;;;12.18;3.10;;;3.70;99.90;;;3.37;100.00;101094.44;4907631;29;20231;-73
2022/03/25 04:25:51;;;;;;;7.60;2.15;;;3.70;99.90;;;3.33;100.00;101099.44;4906480;29;20214;-73
2022/03/25 04:28:19;;;;;;;10.70;2.72;;;3.80;99.90;;;3.16;100.00;101104.75;4907091;29;20266;-73
2022/03/25 04:30:47;;;;;;;16.00;4.05;;;3.70;99.90;;;3.11;100.00;101098.41;4907329;29;20687;-73
2022/03/25 04:33:15;;;;;;;14.73;3.67;;;3.50;99.90;;;2.92;100.00;101098.31;4907443;29;20223;-73
2022/03/25 04:35:43;;;;;;;18.25;4.50;;;3.40;99.90;;;3.01;100.00;101117.06;4909138;29;20274;-74
2022/03/25 04:38:11;;;;;;;11.73;3.03;;;3.50;99.90;;;3.03;100.00;101131.09;4908779;29;20204;-73
2022/03/25 04:40:39;;;;;;;11.63;2.97;;;3.30;99.90;;;2.99;100.00;101141.31;4910173;29;20231;-73
2022/03/25 04:43:08;;;;;;;15.15;3.63;;;3.30;99.90;;;2.95;100.00;101147.19;4909731;29;20676;-78
2022/03/25 04:45:36;;;;;;;10.48;2.67;;;3.30;99.90;;;2.92;100.00;101149.66;4909034;29;20226;-74
2022/03/25 04:48:05;;;;;;;8.43;2.17;;;3.20;99.90;;;3.12;100.00;101178.59;4909267;29;20218;-73
2022/03/25 04:50:33;;;;;;;13.32;3.42;;;3.30;99.90;;;3.07;100.00;101171.34;4901620;29;20222;-74
2022/03/25 04:53:01;;;;;;;12.80;3.20;;;3.20;99.90;;;3.27;100.00;101193.25;4909325;29;20209;-74
2022/03/25 04:55:29;;;;;;;8.43;2.22;;;3.30;99.90;;;3.26;100.00;101189.75;4911162;29;20222;-74
2022/03/25 04:57:57;;;;;;;9.18;2.35;;;3.60;99.90;;;3.21;100.00;101192.13;4908500;29;20211;-77
2022/03/25 05:00:30;;;;;;;9.80;2.50;;;3.30;99.90;;;3.21;100.00;101191.22;4901327;29;20240;-77
2022/03/25 05:02:58;;;;;;;12.32;4.38;;;3.40;99.90;;;3.33;100.00;101212.75;4911744;29;20223;-77
2022/03/25 05:05:27;;;;;;;10.18;2.50;;;3.40;99.90;;;3.28;100.00;101200.28;4911320;29;20216;-76
2022/03/25 05:07:55;;;;;;;17.67;3.95;;;3.40;99.90;;;3.31;100.00;101203.94;4908778;29;20211;-77
2022/03/25 05:10:23;;;;;;;13.23;3.22;;;3.30;99.90;;;3.24;100.00;101195.72;4910410;29;20222;-77
2022/03/25 05:12:51;;;;;;;14.40;3.42;;;3.30;99.90;;;3.45;100.00;101228.16;4910034;29;20225;-77
2022/03/25 05:15:19;;;;;;;13.93;3.33;;;3.30;99.90;;;3.38;100.00;101212.97;4893845;29;20246;-77
2022/03/25 05:17:53;;;;;;;9.10;2.33;;;3.40;99.90;;;3.36;100.00;101212.00;4909692;29;20215;-76
2022/03/25 05:20:24;;;;;;;9.23;2.40;;;3.40;99.90;;;3.44;100.00;101228.97;4913144;29;20220;-77
2022/03/25 05:22:52;;;;;;;11.48;2.90;;;3.70;99.90;;;3.67;100.00;101253.66;4912117;29;20226;-76
2022/03/25 05:25:21;;;;;;;13.80;3.42;;;3.50;99.90;;;3.70;100.00;101243.34;4911924;29;20223;-77
2022/03/25 05:27:58;;;;;;;13.68;3.35;;;3.50;99.90;;;3.86;99.45;101256.34;4908585;29;20234;-77
2022/03/25 05:30:31;;;;;;;14.85;3.55;;;3.60;99.90;;;4.06;97.42;101273.97;4907774;29;20211;-77
2022/03/25 05:33:00;;;;;;;15.38;3.53;;;3.70;99.90;;;4.16;96.35;101265.72;4911742;29;20211;-76
2022/03/25 05:35:29;;;;;;;15.35;3.70;;;3.80;99.90;;;4.12;95.44;101242.84;4909674;29;20235;-75
2022/03/25 05:37:57;;;;;;;12.90;3.05;;;3.80;99.90;;;4.20;95.35;101252.78;4892509;29;20207;-75
2022/03/25 05:40:26;;;;;;;13.20;3.17;;;3.90;99.90;;;4.28;94.24;101241.84;4892824;29;20218;-75
2022/03/25 05:42:55;;;;;;;11.18;2.67;;;4.00;99.90;;;4.23;94.57;101232.88;4908151;29;20226;-75
2022/03/25 05:45:24;;;;;;;8.85;2.28;;;4.00;99.90;;;4.09;95.44;101227.00;4876777;29;20226;-76
2022/03/25 05:47:52;;;;;;;13.98;3.40;;;4.00;99.90;;;4.01;96.35;101224.84;4893711;29;20592;-75
2022/03/25 05:50:20;;;;;;;15.85;3.67;;;4.00;99.90;;;3.93;97.33;101224.47;4909414;29;20215;-76
2022/03/25 05:52:48;;;;;;;12.80;3.20;;;3.90;99.90;;;3.88;98.09;101235.50;4892353;29;20203;-75
2022/03/25 05:55:17;;;;;;;12.50;3.03;;;3.90;99.90;;;3.83;98.65;101236.19;4942569;23;20236;-80
2022/03/25 05:57:46;;;;;;;13.80;3.22;;;3.90;99.90;;;3.80;99.41;101250.81;4966709;28;20208;-79
2022/03/25 06:00:15;;;;;;;13.75;3.40;;;3.90;99.90;;;3.98;99.38;101284.88;4949571;28;20224;-81
2022/03/25 06:02:45;;;;;;;9.38;2.50;;;3.90;99.90;;;4.10;99.08;101315.16;4969064;28;20217;-81
2022/03/25 06:05:14;;;;;;;10.90;2.85;;;3.90;99.90;;;3.99;99.13;101300.66;4970504;28;20233;-81
2022/03/25 06:07:45;;;;;;;6.90;1.88;;;4.00;99.90;;;4.08;99.20;101308.97;4952581;28;20225;-82
2022/03/25 06:10:14;;;;;;;12.48;3.03;;;3.90;99.90;;;4.34;97.86;101349.50;4960632;28;20206;-80
2022/03/25 06:12:43;;;;;;;11.98;3.03;;;4.00;99.90;;;4.68;96.34;101388.69;4944657;28;20221;-81
2022/03/25 06:15:11;;;;;;;11.98;3.05;;;4.10;99.90;;;5.25;92.30;101384.41;4967716;28;20229;-80
2022/03/25 06:17:47;;;;;;;9.13;2.45;;;4.40;99.90;;;5.13;91.59;101342.75;4968812;28;20212;-79
2022/03/25 06:20:23;;;;;;;9.52;2.55;;;4.60;99.90;;;5.16;91.50;101323.63;4956050;28;20300;-77
2022/03/25 06:22:51;;;;;;;12.38;3.20;;;4.70;99.90;;;5.44;89.49;101337.16;4933937;28;20205;-79
2022/03/25 06:25:20;;;;;;;13.55;3.50;;;4.90;99.90;;;5.59;88.45;101330.81;4962360;28;20233;-79
2022/03/25 06:27:57;;;;;;;11.63;2.95;;;5.20;99.90;;;5.46;89.27;101304.03;4950117;28;20221;-79
2022/03/25 06:30:31;;;;;;;14.43;4.93;;;5.10;99.90;;;5.75;88.39;101326.28;4967276;28;20212;-79
2022/03/25 06:33:00;;;;;;;9.32;2.42;;;5.20;99.90;;;5.85;87.76;101324.94;4968034;28;20213;-79
2022/03/25 06:35:29;;;;;;;12.50;3.22;;;5.40;99.90;;;6.18;86.20;101345.56;4970101;28;20252;-79
2022/03/25 06:37:57;;;;;;;11.93;3.13;;;5.50;99.90;;;6.23;85.75;101316.03;4969037;28;20201;-79
2022/03/25 06:40:26;;;;;;;10.20;2.70;;;5.60;99.90;;;6.04;87.52;101300.38;4969694;28;20224;-79
2022/03/25 06:42:56;;;;;;;11.40;2.97;;;5.70;99.90;;;5.81;90.11;101304.63;4961218;28;20205;-79
2022/03/25 06:45:26;;;;;;;9.57;2.85;;;5.70;99.90;;;5.89;91.10;101325.97;4969815;28;20208;-79
2022/03/25 06:47:55;;;;;;;7.68;2.17;;;5.70;99.90;;;6.06;91.32;101351.22;4970726;28;20212;-79
2022/03/25 06:50:24;;;;;;;10.25;2.72;;;5.70;99.90;;;6.42;89.72;101394.75;4969862;28;20662;-79
2022/03/25 06:52:53;;;;;;;7.88;2.22;;;5.90;99.90;;;6.34;89.75;101374.28;4969933;28;20197;-79
2022/03/25 06:55:22;;;;;;;13.13;3.45;;;6.00;99.90;;;6.50;89.57;101376.72;4962337;28;20255;-79
2022/03/25 06:57:51;;;;;;;6.32;1.88;;;6.00;99.90;;;6.78;87.28;101393.59;4967570;28;20205;-79
2022/03/25 07:00:21;;;;;;;11.88;3.17;;;6.10;99.90;;;6.74;87.84;101371.53;4963451;28;20669;-79
2022/03/25 07:02:51;;;;;;;6.07;1.73;;;6.30;99.90;;;6.74;89.04;101369.81;4951830;28;20201;-79
2022/03/25 07:05:21;;;;;;;8.88;3.05;;;6.30;99.90;;;6.75;90.55;101386.47;4980067;28;20221;-79
2022/03/25 07:07:50;;;;;;;6.43;1.85;;;6.40;99.90;;;7.07;89.35;101428.06;4948169;29;20201;-79
2022/03/25 07:10:23;;;;;;;10.25;3.40;;;6.50;99.90;;;7.66;84.87;101410.09;4964984;28;20216;-79
2022/03/25 07:12:52;;;;;;;7.65;2.28;;;;;;;7.86;82.09;101347.66;4940002;28;20220;-79
2022/03/25 07:15:22;;;;;;;7.13;3.63;;;7.00;99.90;;;8.06;80.61;101322.88;4968361;28;20244;-79
2022/03/25 07:17:54;;;;;;;7.32;2.30;;;7.20;99.90;;;8.28;78.52;101298.13;4951477;28;20220;-79
2022/03/25 07:20:25;;;;;;;10.52;2.97;;;7.50;99.90;;;8.34;77.11;101248.28;4966600;28;20205;-79
2022/03/25 07:22:54;;;;;;;8.77;2.60;;;7.80;99.90;;;8.33;77.71;101236.84;4968296;28;20216;-79
2022/03/25 07:25:22;;;;;;;10.02;3.33;;;7.90;99.90;;;8.63;76.25;101221.03;4955271;28;20225;-79
2022/03/25 07:27:50;;;;;;;7.63;2.22;;;8.00;99.90;;;8.81;75.53;101231.22;4952974;28;20206;-79
2022/03/25 07:30:18;;;;;;;8.05;2.30;;;8.30;99.90;;;8.82;75.63;101211.03;4965331;28;20201;-78
2022/03/25 07:32:47;;;;;;;7.28;2.15;;;8.40;99.90;;;8.91;74.82;101209.53;4960865;28;20209;-78
2022/03/25 07:35:16;;;;;;;7.90;2.50;;;8.40;99.90;;;9.03;74.35;101189.63;4967812;28;20256;-79
2022/03/25 07:37:45;;;;;;;15.20;3.90;;;8.60;99.90;;;9.06;73.11;101153.66;4968169;28;20673;-78
2022/03/25 07:40:15;;;;;;;13.88;3.15;;;8.70;99.90;;;9.04;73.03;101139.53;4966968;28;20205;-79
2022/03/25 07:42:45;;;;;;;13.65;3.20;;;8.70;99.90;;;9.18;73.43;101154.00;4939621;28;20201;-79
2022/03/25 07:45:16;;;;;;;12.55;3.08;;;8.70;99.90;;;9.24;74.15;101155.91;4920317;29;20226;-79
2022/03/25 07:47:49;;;;;;;13.32;3.13;;;7.80;99.90;;;9.42;72.81;101150.22;4958979;28;20214;-79
2022/03/25 07:50:21;;;;;;;12.38;3.05;;;8.80;99.90;;;9.28;73.33;101128.75;4968589;28;20220;-78
2022/03/25 07:52:50;;;;;;;10.30;2.50;;;8.90;99.90;;;9.55;72.69;101133.81;4966206;28;20208;-79
2022/03/25 07:55:20;;;;;;;10.50;2.58;;;9.00;99.90;;;9.58;72.94;101133.88;4954754;28;20224;-78
2022/03/25 07:57:49;;;;;;;10.27;2.55;;;9.10;99.90;;;9.50;72.95;101119.59;4971966;28;20216;-79
2022/03/25 08:00:19;;;;;;;11.80;2.80;;;9.10;99.90;;;9.63;73.27;101135.78;4971806;28;20209;-79
2022/03/25 08:02:51;;;;;;;12.20;3.15;;;9.20;99.90;;;9.99;71.44;101139.25;4969851;28;20206;-79
2022/03/25 08:05:21;;;;;;;12.77;3.10;;;9.40;99.90;;;9.99;71.51;101121.63;4972058;28;20232;-79
2022/03/25 08:07:55;;;;;;;5.90;1.60;;;9.50;99.90;;;10.02;70.76;101100.56;4972720;28;20209;-78
2022/03/25 08:10:28;;;;;;;11.98;2.75;;;9.60;99.90;;;10.00;70.68;101086.44;4962767;28;20232;-82
2022/03/25 08:12:56;;;;;;;10.50;2.85;;;9.70;99.90;;;10.22;70.78;101101.03;4973424;28;20213;-80
2022/03/25 08:15:27;;;;;;;12.70;2.95;;;9.70;99.90;;;10.32;70.85;101092.44;4973857;28;20201;-80
2022/03/25 08:18:07;;;;;;;11.75;2.65;;;9.80;99.90;;;10.22;70.76;101074.59;4956044;28;20217;-80
2022/03/25 08:20:42;;;;;;;15.82;4.07;;;9.90;99.90;;;10.48;70.18;101093.66;4938183;28;20210;-79
2022/03/25 08:28:57;;;;;;;17.40;4.53;;;10.10;99.90;;;10.56;68.86;101053.28;4960478;28;20197;-82
2022/03/25 08:31:45;;;;;;;18.02;4.15;;;10.20;99.90;;;10.71;69.31;101046.50;4968561;28;20209;-81
2022/03/25 08:34:15;;;;;;;16.42;3.55;;;10.30;99.90;;;10.77;69.87;101059.81;4939093;28;20233;-82
2022/03/25 08:36:47;;;;;;;7.90;2.42;;;10.40;99.90;;;10.76;70.23;101074.81;4936983;28;20256;-80
2022/03/25 08:39:16;;;;;;;11.02;2.50;;;10.40;99.90;;;10.74;68.65;101043.91;4970032;28;20210;-80
2022/03/25 08:41:45;;;;;;;13.85;3.60;;;;;;;10.86;67.99;101033.53;4956393;28;20217;-78
2022/03/25 08:44:14;;;;;;;11.45;4.00;;;;;;;10.98;68.93;101036.38;4968827;28;20232;-79
2022/03/25 08:46:42;;;;;;;15.85;4.50;;;;;;;10.95;70.07;101044.28;4968529;28;20205;-80
2022/03/25 08:49:11;;;;;;;13.57;3.35;;;;;;;11.07;70.70;101072.72;4969677;28;20213;-81
2022/03/25 08:51:39;;;;;;;17.67;3.90;;;10.70;99.90;;;11.32;69.30;101071.34;4962558;28;20209;-80
2022/03/25 08:54:08;;;;;;;10.15;2.28;;;;;;;11.55;69.81;101084.09;4961453;28;20229;-81
2022/03/25 08:56:37;;;;;;;13.73;3.13;;;10.90;99.90;;;11.54;68.68;101063.75;4953976;28;20241;-80
2022/03/25 08:59:05;;;;;;;14.48;3.60;;;11.10;99.90;;;11.60;67.30;101038.22;4970295;28;20225;-81
2022/03/25 09:01:34;;;;;;;15.00;4.03;;;11.10;99.90;;;11.57;67.52;101022.28;4958463;28;20206;-82
2022/03/25 09:04:02;;;;;;;18.67;4.05;;;;;;;11.83;67.18;101027.16;4970324;28;20252;-80
2022/03/25 09:06:31;;;;;;;16.77;4.90;;;11.30;99.90;;;11.81;67.79;101026.25;4962111;28;20210;-81
2022/03/25 09:08:59;;;;;;;20.95;4.63;;;11.40;99.90;;;12.01;67.35;101031.78;4955462;28;20294;-79
2022/03/25 09:11:27;;;;;;;14.20;3.53;;;11.50;99.90;;;12.23;67.84;101043.56;4960862;28;20216;-79
2022/03/25 09:13:55;;;;;;;14.85;3.38;;;11.60;99.90;;;12.14;67.73;101027.53;4965471;28;20242;-77
2022/03/25 09:16:23;;;;;;;15.23;4.00;;;11.70;99.90;;;11.95;67.03;100991.06;4968777;28;20240;-78
2022/03/25 09:18:52;;;;;;;21.40;5.10;;;11.70;99.90;;;12.32;66.32;101000.34;4969233;28;20229;-77
2022/03/25 09:21:20;;;;;;;10.52;2.70;;;11.80;99.90;;;12.29;65.68;100972.03;4971195;28;20212;-80
2022/03/25 09:23:48;;;;;;;10.52;2.45;;;11.90;99.90;;;12.29;65.81;100964.06;4971700;28;20229;-84
2022/03/25 09:26:17;;;;;;;12.02;2.80;;;12.00;99.90;;;12.45;66.58;100976.59;4970452;28;20216;-80
2022/03/25 09:28:45;;;;;;;17.70;4.13;;;12.00;99.90;;;12.47;65.84;100966.91;4954727;28;20217;-82
2022/03/25 09:31:14;;;;;;;13.70;4.13;;;12.10;99.90;;;12.36;65.83;100942.03;4954878;28;20800;-82
2022/03/25 09:36:48;;;;;;;15.68;3.90;;;12.30;99.90;;;12.90;64.00;100935.41;4970290;28;20231;-82
2022/03/25 09:39:16;;;;;;;14.50;3.53;;;12.40;99.90;;;12.74;63.59;100899.91;4971203;28;20213;-82
2022/03/25 09:41:46;;;;;;;6.65;1.65;;;12.50;99.90;;;13.07;63.79;100925.84;4966670;28;20210;-82
2022/03/25 09:44:16;;;;;;;9.05;2.30;;;12.80;99.90;;;13.37;63.34;100935.81;4947776;28;20229;-82
2022/03/25 09:46:45;;;;;;;4.68;1.25;;;;;;;13.40;63.21;100921.66;4973036;28;20213;-81
2022/03/25 09:49:14;;;;;;;10.82;3.20;;;13.00;99.90;;;13.70;62.12;100911.16;4958162;28;20224;-82
2022/03/25 09:51:42;;;;;;;5.93;1.92;;;13.20;99.90;;;13.70;61.18;100876.59;4959297;28;20216;-82
2022/03/25 09:54:14;;;;;;;6.30;1.63;;;13.30;99.90;;;14.01;61.05;100888.19;4959296;28;20221;-82
2022/03/25 09:56:43;;;;;;;7.22;2.72;;;13.50;99.90;;;13.90;60.40;100851.84;4975546;28;20720;-82
2022/03/25 09:59:17;;;;;;;8.88;2.25;;;13.60;99.90;;;14.08;61.23;100866.06;4972928;28;20582;-82
2022/03/25 10:01:45;;;;;;;10.18;2.67;;;13.80;99.90;;;13.88;60.89;100829.69;4971724;28;20613;-82
2022/03/25 10:04:43;;;;;;;14.75;3.22;;;13.80;99.90;;;13.70;60.53;100783.56;4972281;28;20289;-85
2022/03/25 10:07:31;;;;;;;9.80;2.42;;;13.80;99.90;;;14.20;60.99;100846.56;4968992;28;20694;-83
2022/03/25 10:10:18;;;;;;;12.90;4.63;;;13.90;99.90;;;14.51;60.71;100849.28;4959692;28;20224;-84
2022/03/25 10:13:04;;;;;;;15.15;3.72;;;14.10;99.90;;;14.57;60.97;100846.63;4963914;28;20213;-83
2022/03/25 10:15:38;;;;;;;18.73;4.32;;;14.50;99.90;;;14.71;59.92;100828.88;4965294;28;20201;-83
2022/03/25 10:18:08;;;;;;;13.75;3.28;;;14.60;99.90;;;14.73;59.20;100796.03;4949463;28;20620;-86
2022/03/25 10:20:42;;;;;;;10.50;2.58;;;14.70;99.90;;;14.77;57.88;100770.28;4961563;28;20221;-83
2022/03/25 10:23:11;;;;;;;12.93;3.70;;;;;;;14.97;57.33;100752.47;4964287;28;20224;-85
2022/03/25 10:25:40;;;;;;;12.43;2.90;;;;;;;14.92;57.10;100730.28;4951681;28;20216;-83
2022/03/25 10:28:39;;;;;;;12.77;3.08;;;15.10;99.90;;;15.07;58.12;100744.44;4948498;28;20226;-84
2022/03/25 10:31:11;;;;;;;12.52;3.00;;;15.00;99.90;;;15.44;57.79;100763.78;4965986;28;20216;-84
2022/03/25 10:33:47;;;;;;;10.60;2.72;;;15.30;99.90;;;15.28;57.29;100729.22;4950110;28;20235;-86
2022/03/25 10:36:19;;;;;;;12.35;3.03;;;15.60;99.90;;;15.53;57.87;100751.28;4964701;28;20232;-83
2022/03/25 10:38:57;;;;;;;11.43;3.05;;;15.70;99.90;;;15.86;57.04;100747.56;4967181;28;20236;-84